Aeroporto :
LOGIN :

Iscrizione | Disclaimer

   EN    FR    IT 

 










Sommario :    VFR   VFR Marginale   IFR   IFR Intensivo   IFR Molto Intensivo
Visibilità : 
Base nubi : 
>= 8 km
>= 3000ft
5 / 8 km
1000 / 3000 ft
1500m / 5 km
500 / 1000 ft
800 / 1500m
200 / 500 ft
< 800m
< 200 ft
Simboli :   Temporali  Nebbia  Neve Forte  Precipitazioni Forti  Vento > 20 kt
SIGMETs :   Varie  Temporali  Ghiacco  Turbolenza  Onda orograficha  Ceneri Vulcaniche






- Altitudine del aeroporto : 788 ft
- Codice IATA : DCM


LFCK - Castres-Mazamet

ULTIMO METAR :
  • 130930Z AUTO 33005KT CAVOK 17/11 Q1017 NOSIG

METARs OBSOLETI :
  • 130900Z AUTO VRB02KT 9999 FEW021 BKN220 17/12 Q1017 NOSIG
  • 130830Z AUTO VRB02KT CAVOK 17/11 Q1017 NOSIG
  • 130800Z AUTO VRB02KT CAVOK 15/11 Q1017 NOSIG
  • 130730Z AUTO VRB02KT CAVOK 15/11 Q1018 NOSIG
  • 130700Z AUTO VRB01KT CAVOK 14/12 Q1018 NOSIG
  • 130630Z AUTO 00000KT CAVOK 14/12 Q1018 NOSIG
  • 130600Z AUTO VRB01KT CAVOK 12/11 Q1018 NOSIG
  • 130530Z AUTO 06001KT CAVOK 12/11 Q1018

TAF TAF LFCK
Valido dal 13 a 09 ore il 13 a 18 ore UTC


130800Z 1309/1318 31005KT CAVOK



MetMap, La meteo Aeronautica in un colpo d'occhio ! - Copyright ORBIFLY Dicembre 2007 - Disclaimer

ORBIFLY MET'MAP TEAM :

Programmazione e sviluppo : Alexandra Zaïnal
Concezione : Baudouin d'Aumeries
Supporto tecnico e logistico : Manuel Goepfert
Aiuto : Marc-Olivier Méhu
Aiuto per la traduzione : Arnaldo La Scala




FONTI E CREDITI :

   NOAA